createdAt,value
2023-11-25T00:00:57.291Z,2.20
2023-11-25T00:03:24.840Z,2.00
2023-11-25T00:05:52.044Z,1.80
2023-11-25T00:08:19.291Z,1.80
2023-11-25T00:10:46.542Z,1.70
2023-11-25T00:13:13.746Z,1.60
2023-11-25T00:15:40.921Z,1.60
2023-11-25T00:18:08.064Z,1.60
2023-11-25T00:20:38.216Z,1.60
2023-11-25T00:23:06.059Z,1.70
2023-11-25T00:25:33.609Z,1.70
2023-11-25T00:28:01.096Z,1.80
2023-11-25T00:30:28.490Z,1.70
2023-11-25T00:32:56.269Z,1.70
2023-11-25T00:35:23.587Z,1.60
2023-11-25T00:37:50.683Z,1.60
2023-11-25T00:40:18.365Z,1.50
2023-11-25T00:42:45.632Z,1.50
2023-11-25T00:45:12.788Z,1.50
2023-11-25T00:47:41.858Z,1.50
2023-11-25T00:50:10.470Z,1.70
2023-11-25T00:52:37.948Z,1.90
2023-11-25T00:55:06.517Z,1.90
2023-11-25T00:57:33.669Z,2.00
2023-11-25T01:00:00.781Z,2.00
2023-11-25T01:02:29.629Z,2.10
2023-11-25T01:04:56.986Z,2.10
2023-11-25T01:07:24.114Z,2.10
2023-11-25T01:09:51.376Z,2.10
2023-11-25T01:12:18.566Z,2.10
2023-11-25T01:14:45.760Z,2.10
2023-11-25T01:17:13.008Z,2.10
2023-11-25T01:19:40.116Z,2.10
2023-11-25T01:22:07.671Z,2.10
2023-11-25T01:24:34.871Z,2.10
2023-11-25T01:27:04.117Z,2.10
2023-11-25T01:29:31.529Z,1.90
2023-11-25T01:31:58.495Z,1.50
2023-11-25T01:34:26.518Z,1.30
2023-11-25T01:36:53.696Z,1.20
2023-11-25T01:39:21.207Z,1.20
2023-11-25T01:41:48.290Z,1.10
2023-11-25T01:44:15.300Z,1.10
2023-11-25T01:46:45.237Z,1.10
2023-11-25T01:49:14.632Z,1.10
2023-11-25T01:51:44.229Z,1.10
2023-11-25T01:54:15.244Z,1.10
2023-11-25T01:56:43.255Z,1.20
2023-11-25T01:59:12.928Z,1.20
2023-11-25T02:01:40.655Z,1.20
2023-11-25T02:04:09.180Z,1.30
2023-11-25T02:06:36.774Z,1.30
2023-11-25T02:09:04.866Z,1.30
2023-11-25T02:11:31.915Z,1.30
2023-11-25T02:13:59.962Z,1.40
2023-11-25T02:16:27.598Z,1.50
2023-11-25T02:18:54.719Z,1.50
2023-11-25T02:21:21.865Z,1.60
2023-11-25T02:23:48.859Z,1.60
2023-11-25T02:26:15.869Z,1.60
2023-11-25T02:28:42.968Z,1.70
2023-11-25T02:31:10.153Z,1.70
2023-11-25T02:33:37.439Z,1.70
2023-11-25T02:36:04.845Z,1.70
2023-11-25T02:38:31.907Z,1.70
2023-11-25T02:40:59.008Z,1.70
2023-11-25T02:43:27.703Z,1.70
2023-11-25T02:45:55.193Z,1.60
2023-11-25T02:48:22.224Z,1.60
2023-11-25T02:50:49.235Z,1.70
2023-11-25T02:53:16.266Z,1.70
2023-11-25T02:55:45.192Z,1.70
2023-11-25T02:58:13.270Z,1.70
2023-11-25T03:00:42.951Z,1.70
2023-11-25T03:03:14.477Z,1.70
2023-11-25T03:05:48.403Z,1.70
2023-11-25T03:08:16.165Z,1.70
2023-11-25T03:10:43.266Z,1.70
2023-11-25T03:13:13.911Z,1.80
2023-11-25T03:15:41.418Z,1.70
2023-11-25T03:18:09.305Z,1.70
2023-11-25T03:20:36.779Z,1.70
2023-11-25T03:23:08.512Z,1.70
2023-11-25T03:25:35.838Z,1.70
2023-11-25T03:28:12.427Z,1.70
2023-11-25T03:30:39.979Z,1.70
2023-11-25T03:33:07.022Z,1.70
2023-11-25T03:35:34.967Z,1.70
2023-11-25T03:38:01.936Z,1.70
2023-11-25T03:40:30.395Z,1.80
2023-11-25T03:42:57.557Z,1.80
2023-11-25T03:45:24.640Z,1.80
2023-11-25T03:47:54.444Z,1.80
2023-11-25T03:50:21.425Z,1.90
2023-11-25T03:52:48.558Z,1.90
2023-11-25T03:55:15.621Z,1.90
2023-11-25T03:57:44.603Z,1.90
2023-11-25T04:00:18.044Z,1.90
2023-11-25T04:02:46.251Z,1.90
2023-11-25T04:05:13.665Z,2.00
2023-11-25T04:07:41.244Z,1.90
2023-11-25T04:10:17.768Z,1.90
2023-11-25T04:12:46.197Z,1.90
2023-11-25T04:15:13.924Z,1.90
2023-11-25T04:17:41.735Z,1.80
2023-11-25T04:20:19.235Z,1.80
2023-11-25T04:22:47.902Z,1.70
2023-11-25T04:25:16.392Z,1.70
2023-11-25T04:27:44.447Z,1.70
2023-11-25T04:32:56.232Z,1.70
2023-11-25T04:35:23.323Z,1.70
2023-11-25T04:37:50.312Z,1.70
2023-11-25T04:40:17.992Z,1.70
2023-11-25T04:42:45.455Z,1.70
2023-11-25T04:45:21.888Z,1.70
2023-11-25T04:47:51.520Z,1.70
2023-11-25T04:50:19.982Z,1.70
2023-11-25T04:52:47.230Z,1.80
2023-11-25T04:58:00.943Z,1.80
2023-11-25T05:03:12.136Z,1.80
2023-11-25T05:05:39.453Z,1.80
2023-11-25T05:08:08.219Z,1.80
2023-11-25T05:10:35.430Z,1.70
2023-11-25T05:13:02.662Z,1.70
2023-11-25T05:15:29.854Z,1.60
2023-11-25T05:20:41.566Z,1.60
2023-11-25T05:23:09.319Z,1.60
2023-11-25T05:25:36.508Z,1.60
2023-11-25T05:28:04.907Z,1.50
2023-11-25T05:30:31.947Z,1.50
2023-11-25T05:32:59.151Z,1.50
2023-11-25T05:35:26.289Z,1.50
2023-11-25T05:37:54.557Z,1.50
2023-11-25T05:40:21.806Z,1.50
2023-11-25T05:42:50.123Z,1.50
2023-11-25T05:48:04.415Z,1.50
2023-11-25T05:50:31.703Z,1.50
2023-11-25T06:01:13.893Z,1.30
2023-11-25T06:03:44.057Z,1.30
2023-11-25T06:06:12.312Z,1.30
2023-11-25T06:11:24.998Z,1.30
2023-11-25T06:16:38.346Z,1.20
2023-11-25T06:19:06.018Z,1.20
2023-11-25T06:21:33.158Z,1.10
2023-11-25T06:26:46.008Z,1.20
2023-11-25T06:29:13.436Z,1.10
2023-11-25T06:31:42.419Z,1.10
2023-11-25T06:34:09.638Z,1.10
2023-11-25T06:36:36.691Z,1.20
2023-11-25T06:39:06.259Z,1.00
2023-11-25T06:41:33.205Z,1.00
2023-11-25T06:44:01.562Z,0.90
2023-11-25T06:46:30.601Z,0.90
2023-11-25T06:48:57.847Z,0.80
2023-11-25T06:51:24.861Z,0.70
2023-11-25T06:56:36.847Z,0.70
2023-11-25T06:59:04.370Z,0.60
2023-11-25T07:01:31.937Z,0.50
2023-11-25T07:03:59.179Z,0.50
2023-11-25T07:06:26.463Z,0.50
2023-11-25T07:08:54.917Z,0.50
2023-11-25T07:11:23.407Z,0.50
2023-11-25T07:16:36.357Z,0.80
2023-11-25T07:21:51.905Z,1.10
2023-11-25T07:24:19.074Z,1.10
2023-11-25T07:26:52.986Z,1.20
2023-11-25T07:29:20.523Z,1.10
2023-11-25T07:31:48.665Z,1.20
2023-11-25T07:42:30.451Z,1.40
2023-11-25T07:44:57.576Z,1.40
2023-11-25T07:47:25.110Z,1.50
2023-11-25T07:49:52.467Z,1.50
2023-11-25T07:52:19.572Z,1.50
2023-11-25T07:54:47.229Z,1.60
2023-11-25T07:57:14.439Z,1.50
2023-11-25T07:59:41.640Z,1.50
2023-11-25T08:02:09.748Z,1.50
2023-11-25T08:04:37.128Z,1.50
2023-11-25T08:07:04.159Z,1.60
2023-11-25T08:09:31.285Z,1.50
2023-11-25T08:11:58.469Z,1.50
2023-11-25T08:14:25.658Z,1.50
2023-11-25T08:16:52.914Z,1.60
2023-11-25T08:19:22.602Z,1.50
2023-11-25T08:24:35.110Z,1.60
2023-11-25T08:27:02.194Z,1.70
2023-11-25T08:29:29.237Z,1.80
2023-11-25T08:31:56.344Z,1.80
2023-11-25T08:34:23.437Z,1.80
2023-11-25T08:36:57.197Z,1.90
2023-11-25T08:39:27.562Z,1.90
2023-11-25T08:41:55.366Z,1.90
2023-11-25T08:44:22.431Z,1.90
2023-11-25T08:46:51.505Z,1.90
2023-11-25T08:49:23.693Z,2.00
2023-11-25T08:54:39.712Z,2.10
2023-11-25T08:57:10.344Z,2.20
2023-11-25T08:59:37.518Z,2.30
2023-11-25T09:02:06.771Z,2.20
2023-11-25T09:04:37.735Z,2.30
2023-11-25T09:07:05.215Z,2.30
2023-11-25T09:09:32.176Z,2.40
2023-11-25T09:11:59.365Z,2.40
2023-11-25T09:14:26.661Z,2.40
2023-11-25T09:16:54.080Z,2.30
2023-11-25T09:19:21.090Z,2.30
2023-11-25T09:24:32.623Z,2.50
2023-11-25T09:26:59.781Z,2.50
2023-11-25T09:29:26.758Z,2.50
2023-11-25T09:31:54.013Z,2.60
2023-11-25T09:34:21.413Z,2.70
2023-11-25T09:36:48.494Z,2.90
2023-11-25T09:42:00.408Z,2.80
2023-11-25T09:44:27.801Z,2.90
2023-11-25T09:49:39.726Z,2.70
2023-11-25T09:52:10.682Z,2.60
2023-11-25T09:57:22.698Z,2.60
2023-11-25T09:59:50.595Z,2.50
2023-11-25T10:02:18.189Z,2.60
2023-11-25T10:04:47.794Z,2.50
2023-11-25T10:07:15.747Z,2.50
2023-11-25T10:09:43.328Z,2.60
2023-11-25T10:12:14.957Z,2.60
2023-11-25T10:14:44.472Z,2.60
2023-11-25T10:17:19.035Z,2.40
2023-11-25T10:19:49.509Z,2.20
2023-11-25T10:22:18.439Z,2.10
2023-11-25T10:27:35.859Z,1.90
2023-11-25T10:30:05.290Z,1.90
2023-11-25T10:32:34.113Z,1.90
2023-11-25T10:35:01.294Z,1.90
2023-11-25T10:40:17.976Z,1.90
2023-11-25T10:45:32.175Z,2.00
2023-11-25T10:50:44.734Z,2.40
2023-11-25T10:53:14.209Z,2.60
2023-11-25T10:55:43.931Z,2.60
2023-11-25T11:00:58.548Z,2.70
2023-11-25T11:04:01.252Z,2.70
2023-11-25T11:06:29.986Z,2.60
2023-11-25T11:08:58.938Z,2.50
2023-11-25T11:11:35.174Z,2.50
2023-11-25T11:14:06.757Z,2.50
2023-11-25T11:16:44.214Z,2.50
2023-11-25T11:19:12.006Z,2.40
2023-11-25T11:21:39.912Z,2.40
2023-11-25T11:24:09.521Z,2.40
2023-11-25T11:26:36.678Z,2.30
2023-11-25T11:29:05.602Z,2.40
2023-11-25T11:31:32.706Z,2.40
2023-11-25T11:33:59.828Z,2.40
2023-11-25T11:36:32.991Z,2.30
2023-11-25T11:39:00.126Z,2.30
2023-11-25T11:41:30.527Z,2.20
2023-11-25T11:44:04.876Z,2.10
2023-11-25T11:46:43.166Z,2.00
2023-11-25T11:49:11.815Z,2.10
2023-11-25T11:51:59.232Z,2.10
2023-11-25T11:57:15.624Z,2.10
2023-11-25T12:00:01.892Z,2.10
2023-11-25T12:05:15.918Z,2.10
2023-11-25T12:07:42.925Z,2.10
2023-11-25T12:10:11.156Z,2.20
2023-11-25T12:12:42.453Z,2.30
2023-11-25T12:15:10.700Z,2.40
2023-11-25T12:17:39.919Z,2.50
2023-11-25T12:20:10.267Z,2.40
2023-11-25T12:22:37.450Z,2.40
2023-11-25T12:25:04.867Z,2.40
2023-11-25T12:27:32.642Z,2.40
2023-11-25T12:29:59.763Z,2.30
2023-11-25T12:32:26.994Z,2.30
2023-11-25T12:34:54.408Z,2.30
2023-11-25T12:37:22.291Z,2.20
2023-11-25T12:42:35.308Z,2.10
2023-11-25T12:45:02.471Z,2.10
2023-11-25T12:47:29.626Z,2.10
2023-11-25T12:55:44.326Z,2.00
2023-11-25T12:58:12.629Z,2.00
2023-11-25T13:00:47.713Z,2.00
2023-11-25T13:03:26.735Z,1.90
2023-11-25T13:11:33.304Z,2.00
2023-11-25T13:14:00.560Z,2.00
2023-11-25T13:19:12.603Z,2.10
2023-11-25T13:21:41.718Z,2.10
2023-11-25T13:24:08.747Z,2.10
2023-11-25T13:26:35.897Z,2.10
2023-11-25T13:29:03.115Z,2.20
2023-11-25T13:31:30.234Z,2.20
2023-11-25T13:33:59.249Z,2.30
2023-11-25T13:36:27.385Z,2.20
2023-11-25T13:41:38.685Z,2.20
2023-11-25T13:46:50.218Z,2.20
2023-11-25T13:49:18.358Z,2.20
2023-11-25T13:51:45.393Z,2.20
2023-11-25T13:54:12.452Z,2.20
2023-11-25T13:56:39.578Z,2.20
2023-11-25T13:59:06.668Z,2.20
2023-11-25T14:01:34.046Z,2.30
2023-11-25T14:04:03.149Z,2.20
2023-11-25T14:12:03.761Z,2.10
2023-11-25T14:14:30.959Z,2.10
2023-11-25T14:17:00.100Z,2.00
2023-11-25T14:22:11.818Z,2.00
2023-11-25T14:24:39.206Z,2.00
2023-11-25T14:27:06.875Z,2.00
2023-11-25T14:29:34.012Z,1.90
2023-11-25T14:32:01.241Z,2.00
2023-11-25T14:34:28.512Z,2.00
2023-11-25T14:36:55.702Z,1.90
2023-11-25T14:39:42.118Z,2.00
2023-11-25T14:42:15.343Z,2.00
2023-11-25T14:44:44.627Z,2.00
2023-11-25T14:55:26.317Z,2.10
2023-11-25T14:57:53.406Z,2.10
2023-11-25T15:00:20.671Z,2.10
2023-11-25T15:02:48.316Z,2.10
2023-11-25T15:05:15.520Z,2.10
2023-11-25T15:07:42.671Z,2.10
2023-11-25T15:10:11.785Z,2.10
2023-11-25T15:12:39.923Z,2.10
2023-11-25T15:15:09.746Z,2.10
2023-11-25T15:17:37.173Z,2.20
2023-11-25T15:20:05.460Z,2.20
2023-11-25T15:22:32.823Z,2.20
2023-11-25T15:25:00.600Z,2.20
2023-11-25T15:30:13.914Z,2.20
2023-11-25T15:35:28.885Z,2.20
2023-11-25T15:37:56.061Z,2.20
2023-11-25T15:40:24.144Z,2.20
2023-11-25T15:42:51.652Z,2.20
2023-11-25T15:45:19.147Z,2.20
2023-11-25T15:47:46.917Z,2.20
2023-11-25T15:50:16.555Z,2.10
2023-11-25T15:52:43.909Z,2.20
2023-11-25T15:55:12.757Z,2.20
2023-11-25T15:57:40.015Z,2.10
2023-11-25T16:00:15.585Z,2.20
2023-11-25T16:02:43.723Z,2.00
2023-11-25T16:05:14.898Z,2.00
2023-11-25T16:07:42.634Z,1.90
2023-11-25T16:10:11.536Z,1.90
2023-11-25T16:15:23.782Z,1.80
2023-11-25T16:17:50.897Z,1.70
2023-11-25T16:25:48.899Z,1.80
2023-11-25T16:28:16.314Z,1.90
2023-11-25T16:36:11.736Z,2.00
2023-11-25T16:38:38.845Z,2.00
2023-11-25T16:41:09.557Z,2.10
2023-11-25T16:43:37.447Z,2.10
2023-11-25T16:46:06.065Z,2.10
2023-11-25T16:48:43.641Z,2.10
2023-11-25T16:51:19.486Z,2.10
2023-11-25T16:53:48.050Z,2.10
2023-11-25T16:56:15.525Z,2.00
2023-11-25T16:58:42.713Z,1.80
2023-11-25T17:01:09.784Z,1.70
2023-11-25T17:03:36.982Z,1.60
2023-11-25T17:17:09.117Z,1.20
2023-11-25T17:19:37.230Z,1.20
2023-11-25T17:24:49.588Z,1.20
2023-11-25T17:27:17.335Z,1.20
2023-11-25T17:29:45.289Z,1.20
2023-11-25T17:32:13.080Z,1.30
2023-11-25T17:34:40.381Z,1.30
2023-11-25T17:37:07.854Z,1.40
2023-11-25T17:39:35.030Z,1.40
2023-11-25T17:55:43.858Z,1.60
2023-11-25T17:58:10.992Z,1.70
2023-11-25T18:00:40.220Z,1.70
2023-11-25T18:05:52.864Z,1.70
2023-11-25T18:08:20.069Z,1.70
2023-11-25T18:10:47.182Z,1.70
2023-11-25T18:15:58.536Z,1.70
2023-11-25T18:18:25.610Z,1.70
2023-11-25T18:20:53.340Z,1.80
2023-11-25T18:23:20.521Z,1.80
2023-11-25T18:25:47.633Z,1.80
2023-11-25T18:36:28.886Z,1.90
2023-11-25T18:38:55.932Z,1.90
2023-11-25T18:41:23.147Z,1.90
2023-11-25T18:46:36.304Z,1.90
2023-11-25T18:49:07.440Z,1.90
2023-11-25T18:51:35.283Z,1.90
2023-11-25T18:54:03.059Z,1.90
2023-11-25T18:56:30.210Z,2.00
2023-11-25T18:58:57.313Z,2.00
2023-11-25T19:04:12.519Z,2.10
2023-11-25T19:06:39.608Z,2.10
2023-11-25T19:09:09.260Z,2.10
2023-11-25T19:17:07.270Z,2.10
2023-11-25T19:19:35.181Z,2.00
2023-11-25T19:24:46.628Z,2.10
2023-11-25T19:27:14.280Z,2.10
2023-11-25T19:29:43.344Z,2.10
2023-11-25T19:32:10.780Z,2.00
2023-11-25T19:34:38.023Z,2.00
2023-11-25T19:37:05.110Z,1.90
2023-11-25T19:39:32.273Z,1.90
2023-11-25T19:41:59.356Z,1.80
2023-11-25T19:44:26.410Z,1.80
2023-11-25T19:46:56.288Z,1.90
2023-11-25T19:49:23.579Z,1.80
2023-11-25T19:51:52.715Z,1.90
2023-11-25T19:54:22.870Z,1.90
2023-11-25T20:02:22.316Z,1.90
2023-11-25T20:04:49.689Z,1.90
2023-11-25T20:07:16.806Z,1.90
2023-11-25T20:09:43.946Z,1.90
2023-11-25T20:12:11.205Z,1.80
2023-11-25T20:14:38.941Z,1.70
2023-11-25T20:17:06.786Z,1.70
2023-11-25T20:22:21.733Z,1.60
2023-11-25T20:24:49.181Z,1.60
2023-11-25T20:27:16.329Z,1.60
2023-11-25T20:32:28.638Z,1.70
2023-11-25T20:34:55.837Z,1.70
2023-11-25T20:37:22.835Z,1.80
2023-11-25T20:42:34.041Z,1.80
2023-11-25T20:45:01.703Z,1.80
2023-11-25T20:47:28.831Z,1.90
2023-11-25T20:49:55.899Z,1.80
2023-11-25T20:52:22.944Z,1.90
2023-11-25T20:54:50.285Z,1.90
2023-11-25T20:57:17.607Z,1.80
2023-11-25T20:59:44.803Z,1.80
2023-11-25T21:02:11.996Z,1.80
2023-11-25T21:07:24.027Z,1.90
2023-11-25T21:09:51.145Z,1.90
2023-11-25T21:17:50.569Z,1.90
2023-11-25T21:20:17.678Z,1.90
2023-11-25T21:25:29.126Z,2.00
2023-11-25T21:27:58.023Z,2.00
2023-11-25T21:30:25.822Z,2.00
2023-11-25T21:32:53.082Z,2.10
2023-11-25T21:35:20.241Z,2.10
2023-11-25T21:37:47.374Z,2.10
2023-11-25T21:40:20.917Z,2.10
2023-11-25T21:42:50.976Z,2.10
2023-11-25T21:45:17.949Z,2.10
2023-11-25T21:50:29.367Z,2.00
2023-11-25T21:52:56.563Z,2.00
2023-11-25T21:55:23.929Z,2.00
2023-11-25T21:57:51.114Z,2.00
2023-11-25T22:00:19.769Z,2.10
2023-11-25T22:02:47.370Z,2.10
2023-11-25T22:07:58.666Z,2.10
2023-11-25T22:10:29.654Z,2.10
2023-11-25T22:12:57.861Z,2.20
2023-11-25T22:15:25.523Z,2.10
2023-11-25T22:23:21.607Z,2.10
2023-11-25T22:26:02.590Z,2.10
2023-11-25T22:28:29.623Z,2.20
2023-11-25T22:33:45.280Z,2.20
2023-11-25T22:36:22.364Z,2.30
2023-11-25T22:38:49.506Z,2.20
2023-11-25T22:41:16.886Z,2.30
2023-11-25T22:43:44.090Z,2.20
2023-11-25T22:48:55.752Z,2.30
2023-11-25T22:51:25.122Z,2.30
2023-11-25T22:53:52.610Z,2.20
2023-11-25T22:59:04.367Z,2.20
2023-11-25T23:01:32.399Z,2.20
2023-11-25T23:03:59.849Z,2.20
2023-11-25T23:06:32.263Z,2.20
2023-11-25T23:09:00.043Z,2.20
2023-11-25T23:11:27.196Z,2.20
2023-11-25T23:13:54.478Z,2.20
2023-11-25T23:16:40.319Z,2.10
2023-11-25T23:19:07.396Z,2.10
2023-11-25T23:21:34.504Z,2.10
2023-11-25T23:24:01.495Z,2.10
2023-11-25T23:26:29.244Z,2.10
2023-11-25T23:28:56.499Z,1.90
2023-11-25T23:31:23.523Z,1.80
2023-11-25T23:33:50.652Z,1.70
2023-11-25T23:36:17.815Z,1.50
2023-11-25T23:38:44.874Z,1.50
2023-11-25T23:41:11.829Z,1.50
2023-11-25T23:43:39.025Z,1.50
2023-11-25T23:46:07.329Z,1.50
2023-11-25T23:48:35.489Z,1.40
2023-11-25T23:51:03.348Z,1.30
2023-11-25T23:53:30.452Z,1.20
2023-11-25T23:55:58.452Z,1.20
2023-11-25T23:58:25.475Z,1.30
